Rotterdam Express — DMRX — position and weather

sailwx.info

Track history (hours):
 
Tides and Currents Weather Stations Pressure Air Temp Water Temp Dewpoint Dewpoint Depression Visibility Wind Speed Wind Dir Waves Ship Positions

Rotterdam Express

Last reported at 2016-Jul-23 22:31 UTC. Time now 2016-Jul-23 23:09 UTC.
Position N 33°44' W 118°15'.

Length 294 m; beam 32.2 m; draft 13.6 m.

Type: Ship. MMSI: 211335760.

Date/timePositionNaut miles runAvg speedWind from/ knotsBaromVisibWave heightAir tempDewpointWater temp
2016-Jul-23 22:31N 33°44' W 118°15'0 0.0
2016-Jul-23 21:28N 33°44' W 118°15'0 0.0
2016-Jul-23 20:22N 33°44' W 118°15'0 0.0
2016-Jul-23 19:28N 33°44' W 118°15'0 0.0
2016-Jul-23 18:28N 33°44' W 118°15'0 0.0
2016-Jul-23 17:31N 33°44' W 118°15'0 0.0
2016-Jul-23 16:28N 33°44' W 118°15'0 0.1
2016-Jul-23 15:33N 33°44' W 118°15'3 3.1
2016-Jul-23 14:33N 33°42' W 118°12'1 0.6
2016-Jul-23 13:33N 33°42' W 118°12'4 4.2
2016-Jul-23 12:33N 33°38' W 118°14'7 6.8
2016-Jul-23 11:33N 33°37' W 118°22'8 7.8
2016-Jul-23 10:33N 33°41' W 118°30'8 8.1
2016-Jul-23 09:33N 33°45' W 118°38'1111.1
2016-Jul-23 08:33N 33°50' W 118°50'1111.0
2016-Jul-23 07:33N 33°56' W 119°02'1111.1
2016-Jul-23 06:33N 34°01' W 119°13'2210.9
2016-Jul-23 04:33N 34°08' W 119°38'1111.1
2016-Jul-23 03:33N 34°10' W 119°51'1111.0
2016-Jul-23 02:31N 34°13' W 120°04'1111.2
2016-Jul-23 01:33N 34°16' W 120°17'1111.3
2016-Jul-23 00:33N 34°19' W 120°30'1111.1
2016-Jul-22 23:33N 34°22' W 120°43'1110.6
2016-Jul-22 22:33N 34°26' W 120°55'1110.9
2016-Jul-22 21:33N 34°35' W 121°03'1111.0
2016-Jul-22 20:33N 34°44' W 121°10'1111.0
2016-Jul-22 19:33N 34°53' W 121°17'1110.9
2016-Jul-22 18:33N 35°03' W 121°24'1111.1
2016-Jul-22 17:33N 35°12' W 121°31'1111.1
2016-Jul-22 16:33N 35°22' W 121°38'1111.0
2016-Jul-22 15:33N 35°31' W 121°45'1110.8
2016-Jul-22 14:33N 35°40' W 121°52'1110.9
2016-Jul-22 13:33N 35°50' W 121°59'1010.2
2016-Jul-22 12:33N 35°59' W 122°05'1110.6
2016-Jul-22 11:33N 36°08' W 122°12'1111.1
2016-Jul-22 10:33N 36°18' W 122°18'1111.1
2016-Jul-22 09:33N 36°28' W 122°24'1111.1
2016-Jul-22 08:33N 36°38' W 122°28'1110.9
2016-Jul-22 07:33N 36°49' W 122°33'2210.8
2016-Jul-22 05:33N 37°09' W 122°42'1110.9
2016-Jul-22 04:33N 37°20' W 122°44'10 9.6
2016-Jul-22 03:32N 37°30' W 122°44'9 9.6
2016-Jul-22 02:33N 37°39' W 122°44'9 9.1
2016-Jul-22 01:33N 37°46' W 122°37'1312.7
2016-Jul-22 00:33N 37°48' W 122°21'2 2.0
2016-Jul-21 23:33N 37°48' W 122°18'0 0.0
2016-Jul-21 22:33N 37°48' W 122°18'0 0.0
2016-Jul-21 21:33N 37°48' W 122°18'0 0.0
2016-Jul-21 20:33N 37°48' W 122°18'0 0.0
2016-Jul-21 19:33N 37°48' W 122°18'0 0.0
2016-Jul-21 18:33N 37°48' W 122°18'0 0.0
2016-Jul-21 17:33N 37°48' W 122°18'0 0.0
2016-Jul-21 16:33N 37°48' W 122°18'0 0.0
2016-Jul-21 15:33N 37°48' W 122°18'0 0.0
2016-Jul-21 14:33N 37°48' W 122°18'0 0.0
2016-Jul-21 13:33N 37°48' W 122°18'0 0.0
2016-Jul-21 12:33N 37°48' W 122°18'0 0.0
2016-Jul-21 11:33N 37°48' W 122°18'0 0.0
2016-Jul-21 10:33N 37°48' W 122°18'0 0.0
2016-Jul-21 09:33N 37°48' W 122°18'0 0.0
2016-Jul-21 08:33N 37°48' W 122°18'0 0.0
2016-Jul-21 07:33N 37°48' W 122°18'0 0.0
2016-Jul-21 06:33N 37°48' W 122°18'0 0.0
2016-Jul-21 05:33N 37°48' W 122°18'0 0.0
2016-Jul-21 04:33N 37°48' W 122°18'0 0.2
2016-Jul-21 03:33N 37°48' W 122°19'5 5.4
2016-Jul-21 02:33N 37°49' W 122°25'1313.3
2016-Jul-21 01:33N 37°44' W 122°41'9 9.1
2016-Jul-21 00:33N 37°48' W 122°51'9 9.5
2016-Jul-20 23:33N 37°53' W 123°02'9 9.5
2016-Jul-20 22:33N 37°58' W 123°12'9 9.5
2016-Jul-20 21:33N 38°05' W 123°19'9 9.5
2016-Jul-20 20:34N 38°14' W 123°25'10 9.5
2016-Jul-20 19:34N 38°22' W 123°31'9 9.4
2016-Jul-20 18:33N 38°31' W 123°36'9 9.5
2016-Jul-20 17:34N 38°39' W 123°42'10 9.6
2016-Jul-20 16:32N 38°48' W 123°48'30010.0
2016-Jul-19 10:25N 43°43' W 124°52'7212.2
2016-Jul-19 04:33N 44°55' W 124°51'1312.1
2016-Jul-19 03:29N 45°08' W 124°51'5 1.7
2016-Jul-19 00:33N 45°13' W 124°53'1 0.7
2016-Jul-18 23:33N 45°13' W 124°54'1 0.8
2016-Jul-18 22:33N 45°14' W 124°55'1 0.8
2016-Jul-18 21:33N 45°14' W 124°56'1 0.7
2016-Jul-18 20:33N 45°15' W 124°56'1 0.6
2016-Jul-18 19:32N 45°15' W 124°57'0 0.3
2016-Jul-18 18:15N 45°15' W 124°58'0 0.5
2016-Jul-18 17:27N 45°16' W 124°58'1 0.3
2016-Jul-18 15:33N 45°16' W 124°58'1 0.9
2016-Jul-18 14:33N 45°17' W 124°58'0 0.5
2016-Jul-18 13:33N 45°17' W 124°59'1 0.6
2016-Jul-18 12:14N 45°18' W 124°60'1 1.1
2016-Jul-18 11:33N 45°19' W 124°60'1 0.9
2016-Jul-18 10:33N 45°19' W 125°00'1 0.9
2016-Jul-18 09:34N 45°20' W 125°01'1 0.8
2016-Jul-18 08:34N 45°21' W 125°02'1 0.6
2016-Jul-18 07:33N 45°21' W 125°03'0 0.5
2016-Jul-18 06:33N 45°21' W 125°03'0 0.2
2016-Jul-18 05:33N 45°22' W 125°03'1 0.6
2016-Jul-18 04:33N 45°22' W 125°04'1 0.7
2016-Jul-18 03:33N 45°23' W 125°03'1 1.0
2016-Jul-18 02:33N 45°24' W 125°03'1 1.0
2016-Jul-18 01:33N 45°25' W 125°04'1 0.7
2016-Jul-18 00:33N 45°25' W 125°04'1 0.9
2016-Jul-17 23:34N 45°26' W 125°05'1 0.7
2016-Jul-17 22:33N 45°27' W 125°05'1 0.8
2016-Jul-17 21:33N 45°27' W 125°05'1 0.9
2016-Jul-17 20:33N 45°28' W 125°06'1 0.8
2016-Jul-17 19:33N 45°29' W 125°06'1 0.8
2016-Jul-17 18:33N 45°30' W 125°06'1 0.7
2016-Jul-17 17:33N 45°31' W 125°06'1 0.9
2016-Jul-17 16:33N 45°31' W 125°06'1 1.1
2016-Jul-17 15:33N 45°32' W 125°07'7 7.4
2016-Jul-17 14:34N 45°40' W 125°07'1616.3
2016-Jul-17 13:33N 45°56' W 125°08'1616.4
2016-Jul-17 12:33N 46°13' W 125°10'1616.5
2016-Jul-17 11:34N 46°29' W 125°11'1716.6
2016-Jul-17 10:33N 46°46' W 125°12'1616.4
2016-Jul-17 09:33N 47°02' W 125°14'5116.3
2016-Jul-17 06:27N 47°53' W 125°19'2915.4
2016-Jul-17 04:33N 48°21' W 125°10'1514.7
2016-Jul-17 03:33N 48°31' W 124°53'1616.4
2016-Jul-17 02:33N 48°27' W 124°29'1616.5
2016-Jul-17 01:33N 48°20' W 124°06'1716.5
2016-Jul-17 00:33N 48°16' W 123°42'1413.7
2016-Jul-16 23:33N 48°23' W 123°24'1110.7
2016-Jul-16 22:33N 48°30' W 123°13'1414.0
2016-Jul-16 21:33N 48°44' W 123°08'1111.3
2016-Jul-16 20:33N 48°55' W 123°11'1212.2
2016-Jul-16 19:33N 49°07' W 123°17'1111.2
2016-Jul-16 18:32N 49°09' W 122°60'4 3.5
2016-Jul-16 17:31N 49°11' W 122°55'0 0.0
2016-Jul-16 16:25N 49°11' W 122°55'0 0.0
2016-Jul-16 15:33N 49°11' W 122°55'0 0.0
2016-Jul-16 14:32N 49°11' W 122°55'0 0.0
2016-Jul-16 13:32N 49°11' W 122°55'0 0.0
2016-Jul-16 12:22N 49°11' W 122°55'0 0.0
2016-Jul-16 11:31N 49°11' W 122°55'0 0.0
2016-Jul-16 10:31N 49°11' W 122°55'0 0.0
2016-Jul-16 09:33N 49°11' W 122°55'0 0.0
2016-Jul-16 08:33N 49°11' W 122°55'0 0.0
2016-Jul-16 07:33N 49°11' W 122°55'0 0.0
2016-Jul-16 06:30N 49°11' W 122°55'0 0.0
2016-Jul-16 04:33N 49°11' W 122°55'0 0.0
2016-Jul-16 03:31N 49°11' W 122°55'0 0.0
2016-Jul-16 02:31N 49°11' W 122°55'0 0.0
2016-Jul-16 01:31N 49°11' W 122°55'0 0.0
2016-Jul-16 00:33N 49°11' W 122°55'0 0.0
2016-Jul-15 23:31N 49°11' W 122°55'0 0.0
2016-Jul-15 22:29N 49°11' W 122°55'0 0.0
2016-Jul-15 21:26N 49°11' W 122°55'0 0.0
2016-Jul-15 20:24N 49°11' W 122°55'0 0.0
2016-Jul-15 19:28N 49°11' W 122°55'0 0.0
2016-Jul-15 18:31N 49°11' W 122°55'0 0.0
2016-Jul-15 17:31N 49°11' W 122°55'0 0.0
2016-Jul-15 16:25N 49°11' W 122°55'0 0.0
2016-Jul-15 15:32N 49°11' W 122°55'0 0.0
2016-Jul-15 14:33N 49°11' W 122°55'1 0.7
2016-Jul-15 13:33N 49°11' W 122°55'7 7.6
2016-Jul-15 12:33N 49°07' W 123°05'10 9.7
2016-Jul-15 11:33N 49°05' W 123°20'5 4.7
2016-Jul-15 10:33N 49°01' W 123°16'1616.1
2016-Jul-15 09:34N 48°49' W 123°00'1514.6
2016-Jul-15 08:34N 48°38' W 123°14'1615.6
2016-Jul-15 07:34N 48°22' W 123°18'1211.5
2016-Jul-15 06:33N 48°12' W 123°25'1211.8
2016-Jul-15 05:33N 48°12' W 123°07'1716.3
2016-Jul-15 04:31N 48°09' W 122°43'1617.0
2016-Jul-15 03:33N 47°55' W 122°29'1616.4
2016-Jul-15 02:33N 47°39' W 122°27'6 5.8
2016-Jul-15 01:33N 47°35' W 122°21'0 0.0
2016-Jul-15 00:33N 47°35' W 122°21'0 0.0
2016-Jul-14 23:33N 47°35' W 122°21'0 0.0
2016-Jul-14 22:33N 47°35' W 122°21'0 0.0
2016-Jul-14 21:33N 47°35' W 122°21'0 0.0
2016-Jul-14 20:33N 47°35' W 122°21'0 0.0
2016-Jul-14 19:33N 47°35' W 122°21'0 0.0
2016-Jul-14 18:33N 47°35' W 122°21'0 0.0
2016-Jul-14 17:33N 47°35' W 122°21'0 0.0
2016-Jul-14 16:33N 47°35' W 122°21'0 0.0
2016-Jul-14 15:33N 47°35' W 122°21'0 0.0
2016-Jul-14 14:33N 47°35' W 122°21'0 0.0
2016-Jul-14 13:33N 47°35' W 122°21'0 0.0
2016-Jul-14 12:33N 47°35' W 122°21'0 0.0
2016-Jul-14 11:33N 47°35' W 122°21'0 0.0
2016-Jul-14 10:33N 47°35' W 122°21'0 0.0
2016-Jul-14 09:33N 47°35' W 122°21'0 0.0
2016-Jul-14 08:30N 47°35' W 122°21'0 0.0
2016-Jul-14 07:33N 47°35' W 122°21'0 0.0
2016-Jul-14 06:33N 47°35' W 122°21'0 0.0
2016-Jul-14 05:33N 47°35' W 122°21'0 0.0
2016-Jul-14 04:33N 47°35' W 122°21'0 0.0
2016-Jul-14 03:33N 47°35' W 122°21'0 0.0
2016-Jul-14 02:33N 47°35' W 122°21'0 0.0
2016-Jul-14 01:33N 47°35' W 122°21'0 0.0
2016-Jul-14 00:33N 47°35' W 122°21'0 0.0
2016-Jul-13 23:33N 47°35' W 122°21'1 0.5
2016-Jul-13 22:34N 47°36' W 122°21'  
Track history (hours):
 
Tides and Currents Weather Stations Pressure Air Temp Water Temp Dewpoint Dewpoint Depression Visibility Wind Speed Wind Dir Waves Ship Positions

Rotterdam Express

Last reported at 2016-Jul-23 22:31 UTC. Time now 2016-Jul-23 23:09 UTC.
Position N 33°44' W 118°15'.

Length 294 m; beam 32.2 m; draft 13.6 m.

Type: Ship. MMSI: 211335760.

Date/timePositionNaut miles runAvg speedWind from/ knotsBaromVisibWave heightAir tempDewpointWater temp
2016-Jul-23 22:31N 33°44' W 118°15'0 0.0
2016-Jul-23 21:28N 33°44' W 118°15'0 0.0
2016-Jul-23 20:22N 33°44' W 118°15'0 0.0
2016-Jul-23 19:28N 33°44' W 118°15'0 0.0
2016-Jul-23 18:28N 33°44' W 118°15'0 0.0
2016-Jul-23 17:31N 33°44' W 118°15'0 0.0
2016-Jul-23 16:28N 33°44' W 118°15'0 0.1
2016-Jul-23 15:33N 33°44' W 118°15'3 3.1
2016-Jul-23 14:33N 33°42' W 118°12'1 0.6
2016-Jul-23 13:33N 33°42' W 118°12'4 4.2
2016-Jul-23 12:33N 33°38' W 118°14'7 6.8
2016-Jul-23 11:33N 33°37' W 118°22'8 7.8
2016-Jul-23 10:33N 33°41' W 118°30'8 8.1
2016-Jul-23 09:33N 33°45' W 118°38'1111.1
2016-Jul-23 08:33N 33°50' W 118°50'1111.0
2016-Jul-23 07:33N 33°56' W 119°02'1111.1
2016-Jul-23 06:33N 34°01' W 119°13'2210.9
2016-Jul-23 04:33N 34°08' W 119°38'1111.1
2016-Jul-23 03:33N 34°10' W 119°51'1111.0
2016-Jul-23 02:31N 34°13' W 120°04'1111.2
2016-Jul-23 01:33N 34°16' W 120°17'1111.3
2016-Jul-23 00:33N 34°19' W 120°30'1111.1
2016-Jul-22 23:33N 34°22' W 120°43'1110.6
2016-Jul-22 22:33N 34°26' W 120°55'1110.9
2016-Jul-22 21:33N 34°35' W 121°03'1111.0
2016-Jul-22 20:33N 34°44' W 121°10'1111.0
2016-Jul-22 19:33N 34°53' W 121°17'1110.9
2016-Jul-22 18:33N 35°03' W 121°24'1111.1
2016-Jul-22 17:33N 35°12' W 121°31'1111.1
2016-Jul-22 16:33N 35°22' W 121°38'1111.0
2016-Jul-22 15:33N 35°31' W 121°45'1110.8
2016-Jul-22 14:33N 35°40' W 121°52'1110.9
2016-Jul-22 13:33N 35°50' W 121°59'1010.2
2016-Jul-22 12:33N 35°59' W 122°05'1110.6
2016-Jul-22 11:33N 36°08' W 122°12'1111.1
2016-Jul-22 10:33N 36°18' W 122°18'1111.1
2016-Jul-22 09:33N 36°28' W 122°24'1111.1
2016-Jul-22 08:33N 36°38' W 122°28'1110.9
2016-Jul-22 07:33N 36°49' W 122°33'2210.8
2016-Jul-22 05:33N 37°09' W 122°42'1110.9
2016-Jul-22 04:33N 37°20' W 122°44'10 9.6
2016-Jul-22 03:32N 37°30' W 122°44'9 9.6
2016-Jul-22 02:33N 37°39' W 122°44'9 9.1
2016-Jul-22 01:33N 37°46' W 122°37'1312.7
2016-Jul-22 00:33N 37°48' W 122°21'2 2.0
2016-Jul-21 23:33N 37°48' W 122°18'0 0.0
2016-Jul-21 22:33N 37°48' W 122°18'0 0.0
2016-Jul-21 21:33N 37°48' W 122°18'0 0.0
2016-Jul-21 20:33N 37°48' W 122°18'0 0.0
2016-Jul-21 19:33N 37°48' W 122°18'0 0.0
2016-Jul-21 18:33N 37°48' W 122°18'0 0.0
2016-Jul-21 17:33N 37°48' W 122°18'0 0.0
2016-Jul-21 16:33N 37°48' W 122°18'0 0.0
2016-Jul-21 15:33N 37°48' W 122°18'0 0.0
2016-Jul-21 14:33N 37°48' W 122°18'0 0.0
2016-Jul-21 13:33N 37°48' W 122°18'0 0.0
2016-Jul-21 12:33N 37°48' W 122°18'0 0.0
2016-Jul-21 11:33N 37°48' W 122°18'0 0.0
2016-Jul-21 10:33N 37°48' W 122°18'0 0.0
2016-Jul-21 09:33N 37°48' W 122°18'0 0.0
2016-Jul-21 08:33N 37°48' W 122°18'0 0.0
2016-Jul-21 07:33N 37°48' W 122°18'0 0.0
2016-Jul-21 06:33N 37°48' W 122°18'0 0.0
2016-Jul-21 05:33N 37°48' W 122°18'0 0.0
2016-Jul-21 04:33N 37°48' W 122°18'0 0.2
2016-Jul-21 03:33N 37°48' W 122°19'5 5.4
2016-Jul-21 02:33N 37°49' W 122°25'1313.3
2016-Jul-21 01:33N 37°44' W 122°41'9 9.1
2016-Jul-21 00:33N 37°48' W 122°51'9 9.5
2016-Jul-20 23:33N 37°53' W 123°02'9 9.5
2016-Jul-20 22:33N 37°58' W 123°12'9 9.5
2016-Jul-20 21:33N 38°05' W 123°19'9 9.5
2016-Jul-20 20:34N 38°14' W 123°25'10 9.5
2016-Jul-20 19:34N 38°22' W 123°31'9 9.4
2016-Jul-20 18:33N 38°31' W 123°36'9 9.5
2016-Jul-20 17:34N 38°39' W 123°42'10 9.6
2016-Jul-20 16:32N 38°48' W 123°48'30010.0
2016-Jul-19 10:25N 43°43' W 124°52'7212.2
2016-Jul-19 04:33N 44°55' W 124°51'1312.1
2016-Jul-19 03:29N 45°08' W 124°51'5 1.7
2016-Jul-19 00:33N 45°13' W 124°53'1 0.7
2016-Jul-18 23:33N 45°13' W 124°54'1 0.8
2016-Jul-18 22:33N 45°14' W 124°55'1 0.8
2016-Jul-18 21:33N 45°14' W 124°56'1 0.7
2016-Jul-18 20:33N 45°15' W 124°56'1 0.6
2016-Jul-18 19:32N 45°15' W 124°57'0 0.3
2016-Jul-18 18:15N 45°15' W 124°58'0 0.5
2016-Jul-18 17:27N 45°16' W 124°58'1 0.3
2016-Jul-18 15:33N 45°16' W 124°58'1 0.9
2016-Jul-18 14:33N 45°17' W 124°58'0 0.5
2016-Jul-18 13:33N 45°17' W 124°59'1 0.6
2016-Jul-18 12:14N 45°18' W 124°60'1 1.1
2016-Jul-18 11:33N 45°19' W 124°60'1 0.9
2016-Jul-18 10:33N 45°19' W 125°00'1 0.9
2016-Jul-18 09:34N 45°20' W 125°01'1 0.8
2016-Jul-18 08:34N 45°21' W 125°02'1 0.6
2016-Jul-18 07:33N 45°21' W 125°03'0 0.5
2016-Jul-18 06:33N 45°21' W 125°03'0 0.2
2016-Jul-18 05:33N 45°22' W 125°03'1 0.6
2016-Jul-18 04:33N 45°22' W 125°04'1 0.7
2016-Jul-18 03:33N 45°23' W 125°03'1 1.0
2016-Jul-18 02:33N 45°24' W 125°03'1 1.0
2016-Jul-18 01:33N 45°25' W 125°04'1 0.7
2016-Jul-18 00:33N 45°25' W 125°04'1 0.9
2016-Jul-17 23:34N 45°26' W 125°05'1 0.7
2016-Jul-17 22:33N 45°27' W 125°05'1 0.8
2016-Jul-17 21:33N 45°27' W 125°05'1 0.9
2016-Jul-17 20:33N 45°28' W 125°06'1 0.8
2016-Jul-17 19:33N 45°29' W 125°06'1 0.8
2016-Jul-17 18:33N 45°30' W 125°06'1 0.7
2016-Jul-17 17:33N 45°31' W 125°06'1 0.9
2016-Jul-17 16:33N 45°31' W 125°06'1 1.1
2016-Jul-17 15:33N 45°32' W 125°07'7 7.4
2016-Jul-17 14:34N 45°40' W 125°07'1616.3
2016-Jul-17 13:33N 45°56' W 125°08'1616.4
2016-Jul-17 12:33N 46°13' W 125°10'1616.5
2016-Jul-17 11:34N 46°29' W 125°11'1716.6
2016-Jul-17 10:33N 46°46' W 125°12'1616.4
2016-Jul-17 09:33N 47°02' W 125°14'5116.3
2016-Jul-17 06:27N 47°53' W 125°19'2915.4
2016-Jul-17 04:33N 48°21' W 125°10'1514.7
2016-Jul-17 03:33N 48°31' W 124°53'1616.4
2016-Jul-17 02:33N 48°27' W 124°29'1616.5
2016-Jul-17 01:33N 48°20' W 124°06'1716.5
2016-Jul-17 00:33N 48°16' W 123°42'1413.7
2016-Jul-16 23:33N 48°23' W 123°24'1110.7
2016-Jul-16 22:33N 48°30' W 123°13'1414.0
2016-Jul-16 21:33N 48°44' W 123°08'1111.3
2016-Jul-16 20:33N 48°55' W 123°11'1212.2
2016-Jul-16 19:33N 49°07' W 123°17'1111.2
2016-Jul-16 18:32N 49°09' W 122°60'4 3.5
2016-Jul-16 17:31N 49°11' W 122°55'0 0.0
2016-Jul-16 16:25N 49°11' W 122°55'0 0.0
2016-Jul-16 15:33N 49°11' W 122°55'0 0.0
2016-Jul-16 14:32N 49°11' W 122°55'0 0.0
2016-Jul-16 13:32N 49°11' W 122°55'0 0.0
2016-Jul-16 12:22N 49°11' W 122°55'0 0.0
2016-Jul-16 11:31N 49°11' W 122°55'0 0.0
2016-Jul-16 10:31N 49°11' W 122°55'0 0.0
2016-Jul-16 09:33N 49°11' W 122°55'0 0.0
2016-Jul-16 08:33N 49°11' W 122°55'0 0.0
2016-Jul-16 07:33N 49°11' W 122°55'0 0.0
2016-Jul-16 06:30N 49°11' W 122°55'0 0.0
2016-Jul-16 04:33N 49°11' W 122°55'0 0.0
2016-Jul-16 03:31N 49°11' W 122°55'0 0.0
2016-Jul-16 02:31N 49°11' W 122°55'0 0.0
2016-Jul-16 01:31N 49°11' W 122°55'0 0.0
2016-Jul-16 00:33N 49°11' W 122°55'0 0.0
2016-Jul-15 23:31N 49°11' W 122°55'0 0.0
2016-Jul-15 22:29N 49°11' W 122°55'0 0.0
2016-Jul-15 21:26N 49°11' W 122°55'0 0.0
2016-Jul-15 20:24N 49°11' W 122°55'0 0.0
2016-Jul-15 19:28N 49°11' W 122°55'0 0.0
2016-Jul-15 18:31N 49°11' W 122°55'0 0.0
2016-Jul-15 17:31N 49°11' W 122°55'0 0.0
2016-Jul-15 16:25N 49°11' W 122°55'0 0.0
2016-Jul-15 15:32N 49°11' W 122°55'0 0.0
2016-Jul-15 14:33N 49°11' W 122°55'1 0.7
2016-Jul-15 13:33N 49°11' W 122°55'7 7.6
2016-Jul-15 12:33N 49°07' W 123°05'10 9.7
2016-Jul-15 11:33N 49°05' W 123°20'5 4.7
2016-Jul-15 10:33N 49°01' W 123°16'1616.1
2016-Jul-15 09:34N 48°49' W 123°00'1514.6
2016-Jul-15 08:34N 48°38' W 123°14'1615.6
2016-Jul-15 07:34N 48°22' W 123°18'1211.5
2016-Jul-15 06:33N 48°12' W 123°25'1211.8
2016-Jul-15 05:33N 48°12' W 123°07'1716.3
2016-Jul-15 04:31N 48°09' W 122°43'1617.0
2016-Jul-15 03:33N 47°55' W 122°29'1616.4
2016-Jul-15 02:33N 47°39' W 122°27'6 5.8
2016-Jul-15 01:33N 47°35' W 122°21'0 0.0
2016-Jul-15 00:33N 47°35' W 122°21'0 0.0
2016-Jul-14 23:33N 47°35' W 122°21'0 0.0
2016-Jul-14 22:33N 47°35' W 122°21'0 0.0
2016-Jul-14 21:33N 47°35' W 122°21'0 0.0
2016-Jul-14 20:33N 47°35' W 122°21'0 0.0
2016-Jul-14 19:33N 47°35' W 122°21'0 0.0
2016-Jul-14 18:33N 47°35' W 122°21'0 0.0
2016-Jul-14 17:33N 47°35' W 122°21'0 0.0
2016-Jul-14 16:33N 47°35' W 122°21'0 0.0
2016-Jul-14 15:33N 47°35' W 122°21'0 0.0
2016-Jul-14 14:33N 47°35' W 122°21'0 0.0
2016-Jul-14 13:33N 47°35' W 122°21'0 0.0
2016-Jul-14 12:33N 47°35' W 122°21'0 0.0
2016-Jul-14 11:33N 47°35' W 122°21'0 0.0
2016-Jul-14 10:33N 47°35' W 122°21'0 0.0
2016-Jul-14 09:33N 47°35' W 122°21'0 0.0
2016-Jul-14 08:30N 47°35' W 122°21'0 0.0
2016-Jul-14 07:33N 47°35' W 122°21'0 0.0
2016-Jul-14 06:33N 47°35' W 122°21'0 0.0
2016-Jul-14 05:33N 47°35' W 122°21'0 0.0
2016-Jul-14 04:33N 47°35' W 122°21'0 0.0
2016-Jul-14 03:33N 47°35' W 122°21'0 0.0
2016-Jul-14 02:33N 47°35' W 122°21'0 0.0
2016-Jul-14 01:33N 47°35' W 122°21'0 0.0
2016-Jul-14 00:33N 47°35' W 122°21'0 0.0
2016-Jul-13 23:33N 47°35' W 122°21'1 0.5
2016-Jul-13 22:34N 47°36' W 122°21'  

Dump ship's entire track history